sensor_id;sensor_type;location;lat;lon;timestamp;temperature;humidity
23371;DHT22;11858;51.056;3.712;2023-03-14T00:00:08;11.50;99.90
23371;DHT22;11858;51.056;3.712;2023-03-14T00:02:36;11.30;99.90
23371;DHT22;11858;51.056;3.712;2023-03-14T00:05:02;11.30;99.90
23371;DHT22;11858;51.056;3.712;2023-03-14T00:07:33;11.20;99.90
23371;DHT22;11858;51.056;3.712;2023-03-14T00:10:02;11.30;99.90
23371;DHT22;11858;51.056;3.712;2023-03-14T00:12:30;11.30;99.90
23371;DHT22;11858;51.056;3.712;2023-03-14T00:14:55;11.30;99.90
23371;DHT22;11858;51.056;3.712;2023-03-14T00:17:21;11.30;99.90
23371;DHT22;11858;51.056;3.712;2023-03-14T00:19:48;11.30;99.90
23371;DHT22;11858;51.056;3.712;2023-03-14T00:22:17;11.20;99.90
23371;DHT22;11858;51.056;3.712;2023-03-14T00:24:43;11.20;99.90
23371;DHT22;11858;51.056;3.712;2023-03-14T00:27:09;11.30;99.90
23371;DHT22;11858;51.056;3.712;2023-03-14T00:29:34;11.20;99.90
23371;DHT22;11858;51.056;3.712;2023-03-14T00:32:00;11.10;99.90
23371;DHT22;11858;51.056;3.712;2023-03-14T00:34:30;11.10;99.90
23371;DHT22;11858;51.056;3.712;2023-03-14T00:36:57;11.10;99.90
23371;DHT22;11858;51.056;3.712;2023-03-14T00:39:23;11.10;99.90
23371;DHT22;11858;51.056;3.712;2023-03-14T00:41:48;11.10;99.90
23371;DHT22;11858;51.056;3.712;2023-03-14T00:44:14;11.10;99.90
23371;DHT22;11858;51.056;3.712;2023-03-14T00:46:40;11.00;99.90
23371;DHT22;11858;51.056;3.712;2023-03-14T00:49:06;11.00;99.90
23371;DHT22;11858;51.056;3.712;2023-03-14T00:51:32;11.00;99.90
23371;DHT22;11858;51.056;3.712;2023-03-14T00:53:59;10.90;99.90
23371;DHT22;11858;51.056;3.712;2023-03-14T00:56:25;11.00;99.90
23371;DHT22;11858;51.056;3.712;2023-03-14T00:58:55;10.80;99.90
23371;DHT22;11858;51.056;3.712;2023-03-14T01:01:21;10.80;99.90
23371;DHT22;11858;51.056;3.712;2023-03-14T01:03:49;10.80;99.90
23371;DHT22;11858;51.056;3.712;2023-03-14T01:06:19;10.90;99.90
23371;DHT22;11858;51.056;3.712;2023-03-14T01:08:45;11.00;99.90
23371;DHT22;11858;51.056;3.712;2023-03-14T01:11:15;10.90;99.90
23371;DHT22;11858;51.056;3.712;2023-03-14T01:13:42;10.90;99.90
23371;DHT22;11858;51.056;3.712;2023-03-14T01:16:09;10.90;99.90
23371;DHT22;11858;51.056;3.712;2023-03-14T01:18:37;10.90;99.90
23371;DHT22;11858;51.056;3.712;2023-03-14T01:21:10;10.90;99.90
23371;DHT22;11858;51.056;3.712;2023-03-14T01:23:36;10.90;99.90
23371;DHT22;11858;51.056;3.712;2023-03-14T01:26:02;10.80;99.90
23371;DHT22;11858;51.056;3.712;2023-03-14T01:28:27;10.80;99.90
23371;DHT22;11858;51.056;3.712;2023-03-14T01:30:53;10.80;99.90
23371;DHT22;11858;51.056;3.712;2023-03-14T01:33:19;10.70;99.90
23371;DHT22;11858;51.056;3.712;2023-03-14T01:35:44;10.70;99.90
23371;DHT22;11858;51.056;3.712;2023-03-14T01:38:10;10.80;99.90
23371;DHT22;11858;51.056;3.712;2023-03-14T01:40:44;10.90;99.90
23371;DHT22;11858;51.056;3.712;2023-03-14T01:43:19;10.80;99.90
23371;DHT22;11858;51.056;3.712;2023-03-14T01:48:37;10.80;99.90
23371;DHT22;11858;51.056;3.712;2023-03-14T01:51:08;10.80;99.90
23371;DHT22;11858;51.056;3.712;2023-03-14T01:53:35;10.80;99.90
23371;DHT22;11858;51.056;3.712;2023-03-14T01:56:02;10.80;99.90
23371;DHT22;11858;51.056;3.712;2023-03-14T01:58:30;10.90;99.90
23371;DHT22;11858;51.056;3.712;2023-03-14T02:00:59;10.80;99.90
23371;DHT22;11858;51.056;3.712;2023-03-14T02:03:27;10.90;99.90
23371;DHT22;11858;51.056;3.712;2023-03-14T02:05:57;11.00;99.90
23371;DHT22;11858;51.056;3.712;2023-03-14T02:08:27;11.10;99.90
23371;DHT22;11858;51.056;3.712;2023-03-14T02:10:53;11.00;99.90
23371;DHT22;11858;51.056;3.712;2023-03-14T02:13:20;10.90;99.90
23371;DHT22;11858;51.056;3.712;2023-03-14T02:15:47;11.00;99.90
23371;DHT22;11858;51.056;3.712;2023-03-14T02:18:15;11.00;99.90
23371;DHT22;11858;51.056;3.712;2023-03-14T02:21:00;11.00;99.90
23371;DHT22;11858;51.056;3.712;2023-03-14T02:26:37;10.90;99.90
23371;DHT22;11858;51.056;3.712;2023-03-14T02:29:04;11.10;99.90
23371;DHT22;11858;51.056;3.712;2023-03-14T02:31:30;11.10;99.90
23371;DHT22;11858;51.056;3.712;2023-03-14T02:33:56;11.10;99.90
23371;DHT22;11858;51.056;3.712;2023-03-14T02:36:23;11.00;99.90
23371;DHT22;11858;51.056;3.712;2023-03-14T02:39:10;10.80;99.90
23371;DHT22;11858;51.056;3.712;2023-03-14T02:41:37;10.70;99.90
23371;DHT22;11858;51.056;3.712;2023-03-14T02:44:03;10.60;99.90
23371;DHT22;11858;51.056;3.712;2023-03-14T02:46:29;10.60;99.90
23371;DHT22;11858;51.056;3.712;2023-03-14T02:49:04;10.60;99.90
23371;DHT22;11858;51.056;3.712;2023-03-14T02:51:33;10.50;99.90
23371;DHT22;11858;51.056;3.712;2023-03-14T02:53:58;10.50;99.90
23371;DHT22;11858;51.056;3.712;2023-03-14T02:56:24;10.50;99.90
23371;DHT22;11858;51.056;3.712;2023-03-14T02:58:50;10.50;99.90
23371;DHT22;11858;51.056;3.712;2023-03-14T03:01:16;10.60;99.90
23371;DHT22;11858;51.056;3.712;2023-03-14T03:03:42;10.60;99.90
23371;DHT22;11858;51.056;3.712;2023-03-14T03:06:08;10.70;99.90
23371;DHT22;11858;51.056;3.712;2023-03-14T03:08:33;10.70;99.90
23371;DHT22;11858;51.056;3.712;2023-03-14T03:10:59;10.70;99.90
23371;DHT22;11858;51.056;3.712;2023-03-14T03:13:25;10.50;99.90
23371;DHT22;11858;51.056;3.712;2023-03-14T03:15:52;10.50;99.90
23371;DHT22;11858;51.056;3.712;2023-03-14T03:18:18;10.60;99.90
23371;DHT22;11858;51.056;3.712;2023-03-14T03:20:44;10.60;99.90
23371;DHT22;11858;51.056;3.712;2023-03-14T03:23:11;10.70;99.90
23371;DHT22;11858;51.056;3.712;2023-03-14T03:25:37;10.70;99.90
23371;DHT22;11858;51.056;3.712;2023-03-14T03:28:03;10.70;99.90
23371;DHT22;11858;51.056;3.712;2023-03-14T03:30:36;10.70;99.90
23371;DHT22;11858;51.056;3.712;2023-03-14T03:33:02;10.70;99.90
23371;DHT22;11858;51.056;3.712;2023-03-14T03:35:28;10.70;99.90
23371;DHT22;11858;51.056;3.712;2023-03-14T03:37:54;10.80;99.90
23371;DHT22;11858;51.056;3.712;2023-03-14T03:40:19;10.80;99.90
23371;DHT22;11858;51.056;3.712;2023-03-14T03:42:45;10.80;99.90
23371;DHT22;11858;51.056;3.712;2023-03-14T03:45:11;10.70;99.90
23371;DHT22;11858;51.056;3.712;2023-03-14T03:47:37;10.70;99.90
23371;DHT22;11858;51.056;3.712;2023-03-14T03:50:03;10.80;99.90
23371;DHT22;11858;51.056;3.712;2023-03-14T03:52:28;10.90;99.90
23371;DHT22;11858;51.056;3.712;2023-03-14T03:54:54;10.90;99.90
23371;DHT22;11858;51.056;3.712;2023-03-14T03:57:20;10.80;99.90
23371;DHT22;11858;51.056;3.712;2023-03-14T03:59:46;10.80;99.90
23371;DHT22;11858;51.056;3.712;2023-03-14T04:02:12;10.70;99.90
23371;DHT22;11858;51.056;3.712;2023-03-14T04:04:37;10.60;99.90
23371;DHT22;11858;51.056;3.712;2023-03-14T04:07:03;10.70;99.90
23371;DHT22;11858;51.056;3.712;2023-03-14T04:09:30;11.00;99.90
23371;DHT22;11858;51.056;3.712;2023-03-14T04:11:56;10.80;99.90
23371;DHT22;11858;51.056;3.712;2023-03-14T04:14:22;10.60;99.90
23371;DHT22;11858;51.056;3.712;2023-03-14T04:16:47;10.70;99.90
23371;DHT22;11858;51.056;3.712;2023-03-14T04:19:13;10.60;99.90
23371;DHT22;11858;51.056;3.712;2023-03-14T04:21:39;10.60;99.90
23371;DHT22;11858;51.056;3.712;2023-03-14T04:24:12;10.70;99.90
23371;DHT22;11858;51.056;3.712;2023-03-14T04:26:38;10.80;99.90
23371;DHT22;11858;51.056;3.712;2023-03-14T04:29:04;10.60;99.90
23371;DHT22;11858;51.056;3.712;2023-03-14T04:31:30;10.50;99.90
23371;DHT22;11858;51.056;3.712;2023-03-14T04:33:56;10.60;99.90
23371;DHT22;11858;51.056;3.712;2023-03-14T04:36:21;10.70;99.90
23371;DHT22;11858;51.056;3.712;2023-03-14T04:38:47;10.80;99.90
23371;DHT22;11858;51.056;3.712;2023-03-14T04:41:13;10.80;99.90
23371;DHT22;11858;51.056;3.712;2023-03-14T04:43:39;10.80;99.90
23371;DHT22;11858;51.056;3.712;2023-03-14T04:46:04;10.90;99.90
23371;DHT22;11858;51.056;3.712;2023-03-14T04:48:30;10.80;99.90
23371;DHT22;11858;51.056;3.712;2023-03-14T04:50:56;10.80;99.90
23371;DHT22;11858;51.056;3.712;2023-03-14T04:53:22;10.80;99.90
23371;DHT22;11858;51.056;3.712;2023-03-14T04:55:49;10.80;99.90
23371;DHT22;11858;51.056;3.712;2023-03-14T04:58:15;10.80;99.90
23371;DHT22;11858;51.056;3.712;2023-03-14T05:00:41;10.80;99.90
23371;DHT22;11858;51.056;3.712;2023-03-14T05:03:06;10.80;99.90
23371;DHT22;11858;51.056;3.712;2023-03-14T05:05:32;10.80;99.90
23371;DHT22;11858;51.056;3.712;2023-03-14T05:07:58;10.80;99.90
23371;DHT22;11858;51.056;3.712;2023-03-14T05:10:24;10.80;99.90
23371;DHT22;11858;51.056;3.712;2023-03-14T05:12:51;10.80;99.90
23371;DHT22;11858;51.056;3.712;2023-03-14T05:15:16;10.80;99.90
23371;DHT22;11858;51.056;3.712;2023-03-14T05:17:42;10.70;99.90
23371;DHT22;11858;51.056;3.712;2023-03-14T05:20:09;10.50;99.90
23371;DHT22;11858;51.056;3.712;2023-03-14T05:22:35;10.40;99.90
23371;DHT22;11858;51.056;3.712;2023-03-14T05:25:01;10.40;99.90
23371;DHT22;11858;51.056;3.712;2023-03-14T05:27:27;10.40;99.90
23371;DHT22;11858;51.056;3.712;2023-03-14T05:29:53;10.40;99.90
23371;DHT22;11858;51.056;3.712;2023-03-14T05:32:18;10.30;99.90
23371;DHT22;11858;51.056;3.712;2023-03-14T05:34:44;10.30;99.90
23371;DHT22;11858;51.056;3.712;2023-03-14T05:37:10;10.30;99.90
23371;DHT22;11858;51.056;3.712;2023-03-14T05:39:36;10.40;99.90
23371;DHT22;11858;51.056;3.712;2023-03-14T05:42:02;10.20;99.90
23371;DHT22;11858;51.056;3.712;2023-03-14T05:44:27;10.20;99.90
23371;DHT22;11858;51.056;3.712;2023-03-14T05:46:53;10.00;99.90
23371;DHT22;11858;51.056;3.712;2023-03-14T05:49:19;9.80;99.90
23371;DHT22;11858;51.056;3.712;2023-03-14T05:51:44;9.60;99.90
23371;DHT22;11858;51.056;3.712;2023-03-14T05:54:10;9.40;99.90
23371;DHT22;11858;51.056;3.712;2023-03-14T05:56:36;9.30;99.90
23371;DHT22;11858;51.056;3.712;2023-03-14T05:59:02;9.20;99.90
23371;DHT22;11858;51.056;3.712;2023-03-14T06:01:29;9.20;99.90
23371;DHT22;11858;51.056;3.712;2023-03-14T06:03:55;9.10;99.90
23371;DHT22;11858;51.056;3.712;2023-03-14T06:06:21;9.00;99.90
23371;DHT22;11858;51.056;3.712;2023-03-14T06:08:46;8.80;99.90
23371;DHT22;11858;51.056;3.712;2023-03-14T06:11:12;8.80;99.90
23371;DHT22;11858;51.056;3.712;2023-03-14T06:13:38;8.70;99.90
23371;DHT22;11858;51.056;3.712;2023-03-14T06:16:04;8.60;99.90
23371;DHT22;11858;51.056;3.712;2023-03-14T06:18:30;8.60;99.90
23371;DHT22;11858;51.056;3.712;2023-03-14T06:20:56;8.50;99.90
23371;DHT22;11858;51.056;3.712;2023-03-14T06:23:22;8.40;99.90
23371;DHT22;11858;51.056;3.712;2023-03-14T06:25:48;8.30;99.90
23371;DHT22;11858;51.056;3.712;2023-03-14T06:28:14;8.40;99.90
23371;DHT22;11858;51.056;3.712;2023-03-14T06:30:40;8.50;99.90
23371;DHT22;11858;51.056;3.712;2023-03-14T06:33:06;8.50;99.90
23371;DHT22;11858;51.056;3.712;2023-03-14T06:35:32;8.40;99.90
23371;DHT22;11858;51.056;3.712;2023-03-14T06:37:58;8.30;99.90
23371;DHT22;11858;51.056;3.712;2023-03-14T06:40:24;8.50;99.90
23371;DHT22;11858;51.056;3.712;2023-03-14T06:42:49;8.60;99.90
23371;DHT22;11858;51.056;3.712;2023-03-14T06:45:15;8.50;99.90
23371;DHT22;11858;51.056;3.712;2023-03-14T06:47:41;8.40;99.90
23371;DHT22;11858;51.056;3.712;2023-03-14T06:50:08;8.40;99.90
23371;DHT22;11858;51.056;3.712;2023-03-14T06:52:34;8.30;99.90
23371;DHT22;11858;51.056;3.712;2023-03-14T06:55:00;8.20;99.90
23371;DHT22;11858;51.056;3.712;2023-03-14T06:57:26;8.10;99.90
23371;DHT22;11858;51.056;3.712;2023-03-14T06:59:51;8.20;99.90
23371;DHT22;11858;51.056;3.712;2023-03-14T07:02:17;8.40;99.90
23371;DHT22;11858;51.056;3.712;2023-03-14T07:04:43;8.40;99.90
23371;DHT22;11858;51.056;3.712;2023-03-14T07:07:09;8.50;99.90
23371;DHT22;11858;51.056;3.712;2023-03-14T07:09:35;8.30;99.90
23371;DHT22;11858;51.056;3.712;2023-03-14T07:12:01;8.20;99.90
23371;DHT22;11858;51.056;3.712;2023-03-14T07:14:28;8.20;99.90
23371;DHT22;11858;51.056;3.712;2023-03-14T07:16:54;8.20;99.90
23371;DHT22;11858;51.056;3.712;2023-03-14T07:19:20;8.20;99.90
23371;DHT22;11858;51.056;3.712;2023-03-14T07:21:45;8.20;99.90
23371;DHT22;11858;51.056;3.712;2023-03-14T07:24:11;8.20;99.90
23371;DHT22;11858;51.056;3.712;2023-03-14T07:26:38;8.20;99.90
23371;DHT22;11858;51.056;3.712;2023-03-14T07:29:04;8.20;99.90
23371;DHT22;11858;51.056;3.712;2023-03-14T07:31:30;8.30;99.90
23371;DHT22;11858;51.056;3.712;2023-03-14T07:33:56;8.30;99.90
23371;DHT22;11858;51.056;3.712;2023-03-14T07:36:22;8.30;99.90
23371;DHT22;11858;51.056;3.712;2023-03-14T07:38:47;8.20;99.90
23371;DHT22;11858;51.056;3.712;2023-03-14T07:41:13;8.20;99.90
23371;DHT22;11858;51.056;3.712;2023-03-14T07:43:39;8.20;99.90
23371;DHT22;11858;51.056;3.712;2023-03-14T07:46:06;8.10;99.90
23371;DHT22;11858;51.056;3.712;2023-03-14T07:48:32;7.80;99.90
23371;DHT22;11858;51.056;3.712;2023-03-14T07:50:57;7.80;99.90
23371;DHT22;11858;51.056;3.712;2023-03-14T07:53:24;7.90;99.90
23371;DHT22;11858;51.056;3.712;2023-03-14T07:55:51;7.90;99.90
23371;DHT22;11858;51.056;3.712;2023-03-14T07:58:18;7.90;99.90
23371;DHT22;11858;51.056;3.712;2023-03-14T08:00:43;7.90;99.90
23371;DHT22;11858;51.056;3.712;2023-03-14T08:03:09;7.80;99.90
23371;DHT22;11858;51.056;3.712;2023-03-14T08:05:36;7.80;99.90
23371;DHT22;11858;51.056;3.712;2023-03-14T08:08:03;7.80;99.90
23371;DHT22;11858;51.056;3.712;2023-03-14T08:10:29;7.80;99.90
23371;DHT22;11858;51.056;3.712;2023-03-14T08:12:56;7.80;99.90
23371;DHT22;11858;51.056;3.712;2023-03-14T08:15:23;7.90;99.90
23371;DHT22;11858;51.056;3.712;2023-03-14T08:17:49;7.70;99.90
23371;DHT22;11858;51.056;3.712;2023-03-14T08:20:24;7.70;99.90
23371;DHT22;11858;51.056;3.712;2023-03-14T08:22:51;7.70;99.90
23371;DHT22;11858;51.056;3.712;2023-03-14T08:25:17;7.80;99.90
23371;DHT22;11858;51.056;3.712;2023-03-14T08:27:43;7.80;99.90
23371;DHT22;11858;51.056;3.712;2023-03-14T08:30:14;7.80;99.90
23371;DHT22;11858;51.056;3.712;2023-03-14T08:32:40;7.80;99.90
23371;DHT22;11858;51.056;3.712;2023-03-14T08:35:07;7.80;99.90
23371;DHT22;11858;51.056;3.712;2023-03-14T08:37:33;7.80;99.90
23371;DHT22;11858;51.056;3.712;2023-03-14T08:39:59;7.80;99.90
23371;DHT22;11858;51.056;3.712;2023-03-14T08:42:25;7.90;99.90
23371;DHT22;11858;51.056;3.712;2023-03-14T08:44:51;8.00;99.90
23371;DHT22;11858;51.056;3.712;2023-03-14T08:47:18;8.00;99.90
23371;DHT22;11858;51.056;3.712;2023-03-14T08:49:43;7.90;99.90
23371;DHT22;11858;51.056;3.712;2023-03-14T08:52:09;7.90;99.90
23371;DHT22;11858;51.056;3.712;2023-03-14T08:54:35;7.90;99.90
23371;DHT22;11858;51.056;3.712;2023-03-14T08:57:01;8.00;99.90
23371;DHT22;11858;51.056;3.712;2023-03-14T08:59:26;7.70;99.90
23371;DHT22;11858;51.056;3.712;2023-03-14T09:01:52;7.70;99.90
23371;DHT22;11858;51.056;3.712;2023-03-14T09:04:20;7.70;99.90
23371;DHT22;11858;51.056;3.712;2023-03-14T09:06:46;7.70;99.90
23371;DHT22;11858;51.056;3.712;2023-03-14T09:09:12;7.70;99.90
23371;DHT22;11858;51.056;3.712;2023-03-14T09:11:39;7.70;99.90
23371;DHT22;11858;51.056;3.712;2023-03-14T09:14:05;7.70;99.90
23371;DHT22;11858;51.056;3.712;2023-03-14T09:16:32;7.70;99.90
23371;DHT22;11858;51.056;3.712;2023-03-14T09:18:58;7.80;99.90
23371;DHT22;11858;51.056;3.712;2023-03-14T09:21:26;8.00;99.90
23371;DHT22;11858;51.056;3.712;2023-03-14T09:23:52;7.90;99.90
23371;DHT22;11858;51.056;3.712;2023-03-14T09:26:19;8.00;99.90
23371;DHT22;11858;51.056;3.712;2023-03-14T09:28:45;8.00;99.90
23371;DHT22;11858;51.056;3.712;2023-03-14T09:31:12;8.10;99.90
23371;DHT22;11858;51.056;3.712;2023-03-14T09:33:38;8.00;99.90
23371;DHT22;11858;51.056;3.712;2023-03-14T09:36:05;7.90;99.90
23371;DHT22;11858;51.056;3.712;2023-03-14T09:38:31;7.80;99.90
23371;DHT22;11858;51.056;3.712;2023-03-14T09:40:59;7.90;99.90
23371;DHT22;11858;51.056;3.712;2023-03-14T09:43:31;7.80;99.90
23371;DHT22;11858;51.056;3.712;2023-03-14T09:46:01;7.70;99.90
23371;DHT22;11858;51.056;3.712;2023-03-14T09:48:31;7.80;99.90
23371;DHT22;11858;51.056;3.712;2023-03-14T09:50:59;7.60;99.90
23371;DHT22;11858;51.056;3.712;2023-03-14T09:53:39;7.60;99.90
23371;DHT22;11858;51.056;3.712;2023-03-14T09:56:25;7.40;99.90
23371;DHT22;11858;51.056;3.712;2023-03-14T09:59:03;7.40;99.90
23371;DHT22;11858;51.056;3.712;2023-03-14T10:01:32;7.30;99.90
23371;DHT22;11858;51.056;3.712;2023-03-14T10:04:02;7.30;99.90
23371;DHT22;11858;51.056;3.712;2023-03-14T10:06:31;7.30;99.90
23371;DHT22;11858;51.056;3.712;2023-03-14T10:08:57;7.10;99.90
23371;DHT22;11858;51.056;3.712;2023-03-14T10:11:24;7.20;99.90
23371;DHT22;11858;51.056;3.712;2023-03-14T10:14:03;7.20;99.90
23371;DHT22;11858;51.056;3.712;2023-03-14T10:16:34;7.40;99.90
23371;DHT22;11858;51.056;3.712;2023-03-14T10:19:10;7.50;99.90
23371;DHT22;11858;51.056;3.712;2023-03-14T10:21:42;7.60;99.90
23371;DHT22;11858;51.056;3.712;2023-03-14T10:24:32;7.60;99.90
23371;DHT22;11858;51.056;3.712;2023-03-14T10:29:33;7.30;99.90
23371;DHT22;11858;51.056;3.712;2023-03-14T10:32:05;7.30;99.90
23371;DHT22;11858;51.056;3.712;2023-03-14T10:34:37;7.10;99.90
23371;DHT22;11858;51.056;3.712;2023-03-14T10:37:14;7.10;99.90
23371;DHT22;11858;51.056;3.712;2023-03-14T10:39:45;7.10;99.90
23371;DHT22;11858;51.056;3.712;2023-03-14T10:44:40;7.10;99.90
23371;DHT22;11858;51.056;3.712;2023-03-14T10:47:12;7.10;99.90
23371;DHT22;11858;51.056;3.712;2023-03-14T10:49:39;7.10;99.90
23371;DHT22;11858;51.056;3.712;2023-03-14T10:52:24;7.00;99.90
23371;DHT22;11858;51.056;3.712;2023-03-14T10:55:04;7.10;99.90
23371;DHT22;11858;51.056;3.712;2023-03-14T10:57:42;7.00;99.90
23371;DHT22;11858;51.056;3.712;2023-03-14T11:00:18;6.90;99.90
23371;DHT22;11858;51.056;3.712;2023-03-14T11:03:10;6.90;99.90
23371;DHT22;11858;51.056;3.712;2023-03-14T11:05:43;7.00;99.90
23371;DHT22;11858;51.056;3.712;2023-03-14T11:08:19;7.10;99.90
23371;DHT22;11858;51.056;3.712;2023-03-14T11:10:48;7.30;99.90
23371;DHT22;11858;51.056;3.712;2023-03-14T11:13:29;7.40;99.90
23371;DHT22;11858;51.056;3.712;2023-03-14T11:18:31;7.90;99.90
23371;DHT22;11858;51.056;3.712;2023-03-14T11:26:34;8.50;99.90
23371;DHT22;11858;51.056;3.712;2023-03-14T11:32:14;8.30;99.90
23371;DHT22;11858;51.056;3.712;2023-03-14T11:34:50;8.20;99.90
23371;DHT22;11858;51.056;3.712;2023-03-14T11:37:29;8.10;99.90
23371;DHT22;11858;51.056;3.712;2023-03-14T11:42:41;8.20;99.90
23371;DHT22;11858;51.056;3.712;2023-03-14T11:45:20;8.10;99.90
23371;DHT22;11858;51.056;3.712;2023-03-14T11:48:15;8.00;99.90
23371;DHT22;11858;51.056;3.712;2023-03-14T11:50:40;8.00;99.90
23371;DHT22;11858;51.056;3.712;2023-03-14T11:53:22;8.10;99.90
23371;DHT22;11858;51.056;3.712;2023-03-14T11:55:48;8.30;99.90
23371;DHT22;11858;51.056;3.712;2023-03-14T11:58:17;8.30;99.90
23371;DHT22;11858;51.056;3.712;2023-03-14T12:00:47;8.30;99.90
23371;DHT22;11858;51.056;3.712;2023-03-14T12:06:20;8.10;99.90
23371;DHT22;11858;51.056;3.712;2023-03-14T12:08:55;8.30;99.90
23371;DHT22;11858;51.056;3.712;2023-03-14T12:14:32;8.30;99.90
23371;DHT22;11858;51.056;3.712;2023-03-14T12:19:30;8.20;99.90
23371;DHT22;11858;51.056;3.712;2023-03-14T12:22:07;8.20;99.90
23371;DHT22;11858;51.056;3.712;2023-03-14T12:24:36;8.20;99.90
23371;DHT22;11858;51.056;3.712;2023-03-14T12:27:05;7.90;99.90
23371;DHT22;11858;51.056;3.712;2023-03-14T12:29:32;7.90;99.90
23371;DHT22;11858;51.056;3.712;2023-03-14T12:34:30;8.00;99.90
23371;DHT22;11858;51.056;3.712;2023-03-14T12:39:45;8.00;99.90
23371;DHT22;11858;51.056;3.712;2023-03-14T12:50:21;7.80;99.90
23371;DHT22;11858;51.056;3.712;2023-03-14T12:52:59;7.50;99.90
23371;DHT22;11858;51.056;3.712;2023-03-14T12:55:47;7.50;99.90
23371;DHT22;11858;51.056;3.712;2023-03-14T13:01:02;7.20;99.90
23371;DHT22;11858;51.056;3.712;2023-03-14T13:03:47;7.20;99.90
23371;DHT22;11858;51.056;3.712;2023-03-14T13:06:44;7.00;99.90
23371;DHT22;11858;51.056;3.712;2023-03-14T13:09:49;7.10;99.90
23371;DHT22;11858;51.056;3.712;2023-03-14T13:12:17;6.90;99.90
23371;DHT22;11858;51.056;3.712;2023-03-14T13:14:48;7.10;99.90
23371;DHT22;11858;51.056;3.712;2023-03-14T13:17:23;7.40;99.90
23371;DHT22;11858;51.056;3.712;2023-03-14T13:19:55;7.60;99.90
23371;DHT22;11858;51.056;3.712;2023-03-14T13:22:27;7.90;99.90
23371;DHT22;11858;51.056;3.712;2023-03-14T13:25:06;8.00;99.90
23371;DHT22;11858;51.056;3.712;2023-03-14T13:27:34;8.30;99.90
23371;DHT22;11858;51.056;3.712;2023-03-14T13:30:11;8.40;99.90
23371;DHT22;11858;51.056;3.712;2023-03-14T13:32:41;8.80;99.90
23371;DHT22;11858;51.056;3.712;2023-03-14T13:35:16;9.00;99.90
23371;DHT22;11858;51.056;3.712;2023-03-14T13:37:42;9.10;99.90
23371;DHT22;11858;51.056;3.712;2023-03-14T13:40:34;9.20;99.90
23371;DHT22;11858;51.056;3.712;2023-03-14T13:43:16;9.30;99.90
23371;DHT22;11858;51.056;3.712;2023-03-14T13:45:53;9.20;99.90
23371;DHT22;11858;51.056;3.712;2023-03-14T13:48:22;9.10;99.90
23371;DHT22;11858;51.056;3.712;2023-03-14T13:50:58;8.90;99.90
23371;DHT22;11858;51.056;3.712;2023-03-14T13:53:25;8.70;99.90
23371;DHT22;11858;51.056;3.712;2023-03-14T13:55:51;8.50;99.90
23371;DHT22;11858;51.056;3.712;2023-03-14T13:58:27;8.20;99.90
23371;DHT22;11858;51.056;3.712;2023-03-14T14:01:02;8.00;99.90
23371;DHT22;11858;51.056;3.712;2023-03-14T14:03:36;7.80;99.90
23371;DHT22;11858;51.056;3.712;2023-03-14T14:06:05;7.70;99.90
23371;DHT22;11858;51.056;3.712;2023-03-14T14:08:33;7.70;99.90
23371;DHT22;11858;51.056;3.712;2023-03-14T14:11:01;7.60;99.90
23371;DHT22;11858;51.056;3.712;2023-03-14T14:13:30;7.60;99.90
23371;DHT22;11858;51.056;3.712;2023-03-14T14:16:00;7.60;99.90
23371;DHT22;11858;51.056;3.712;2023-03-14T14:18:28;7.60;99.90
23371;DHT22;11858;51.056;3.712;2023-03-14T14:20:55;7.60;99.90
23371;DHT22;11858;51.056;3.712;2023-03-14T14:23:28;7.50;99.90
23371;DHT22;11858;51.056;3.712;2023-03-14T14:25:56;7.80;99.90
23371;DHT22;11858;51.056;3.712;2023-03-14T14:28:33;7.90;99.90
23371;DHT22;11858;51.056;3.712;2023-03-14T14:31:22;7.90;99.90
23371;DHT22;11858;51.056;3.712;2023-03-14T14:33:54;7.90;99.90
23371;DHT22;11858;51.056;3.712;2023-03-14T14:36:22;8.10;99.90
23371;DHT22;11858;51.056;3.712;2023-03-14T14:41:27;8.10;99.90
23371;DHT22;11858;51.056;3.712;2023-03-14T14:43:55;8.10;99.90
23371;DHT22;11858;51.056;3.712;2023-03-14T14:46:21;8.10;99.90
23371;DHT22;11858;51.056;3.712;2023-03-14T14:48:47;8.20;99.90
23371;DHT22;11858;51.056;3.712;2023-03-14T14:51:25;8.20;99.90
23371;DHT22;11858;51.056;3.712;2023-03-14T14:54:12;8.10;99.90
23371;DHT22;11858;51.056;3.712;2023-03-14T14:56:39;8.10;99.90
23371;DHT22;11858;51.056;3.712;2023-03-14T14:59:07;8.10;99.90
23371;DHT22;11858;51.056;3.712;2023-03-14T15:01:43;8.10;99.90
23371;DHT22;11858;51.056;3.712;2023-03-14T15:04:13;8.10;99.90
23371;DHT22;11858;51.056;3.712;2023-03-14T15:06:43;8.10;99.90
23371;DHT22;11858;51.056;3.712;2023-03-14T15:09:13;8.10;99.90
23371;DHT22;11858;51.056;3.712;2023-03-14T15:11:39;8.00;99.90
23371;DHT22;11858;51.056;3.712;2023-03-14T15:14:05;8.00;99.90
23371;DHT22;11858;51.056;3.712;2023-03-14T15:16:32;8.00;99.90
23371;DHT22;11858;51.056;3.712;2023-03-14T15:19:02;8.10;99.90
23371;DHT22;11858;51.056;3.712;2023-03-14T15:21:31;8.20;99.90
23371;DHT22;11858;51.056;3.712;2023-03-14T15:23:57;8.10;99.90
23371;DHT22;11858;51.056;3.712;2023-03-14T15:26:25;8.10;99.90
23371;DHT22;11858;51.056;3.712;2023-03-14T15:28:52;8.20;99.90
23371;DHT22;11858;51.056;3.712;2023-03-14T15:31:20;8.20;99.90
23371;DHT22;11858;51.056;3.712;2023-03-14T15:33:47;8.30;99.90
23371;DHT22;11858;51.056;3.712;2023-03-14T15:36:24;8.20;99.90
23371;DHT22;11858;51.056;3.712;2023-03-14T15:38:52;8.30;99.90
23371;DHT22;11858;51.056;3.712;2023-03-14T15:41:18;8.40;99.90
23371;DHT22;11858;51.056;3.712;2023-03-14T15:43:45;8.40;99.90
23371;DHT22;11858;51.056;3.712;2023-03-14T15:46:11;8.40;99.90
23371;DHT22;11858;51.056;3.712;2023-03-14T15:48:38;8.50;99.90
23371;DHT22;11858;51.056;3.712;2023-03-14T15:51:04;8.60;99.90
23371;DHT22;11858;51.056;3.712;2023-03-14T15:53:30;8.80;99.90
23371;DHT22;11858;51.056;3.712;2023-03-14T15:55:55;9.20;99.90
23371;DHT22;11858;51.056;3.712;2023-03-14T15:58:21;9.40;99.90
23371;DHT22;11858;51.056;3.712;2023-03-14T16:00:48;9.60;99.90
23371;DHT22;11858;51.056;3.712;2023-03-14T16:03:13;9.80;99.90
23371;DHT22;11858;51.056;3.712;2023-03-14T16:05:40;10.20;99.90
23371;DHT22;11858;51.056;3.712;2023-03-14T16:08:06;10.20;99.90
23371;DHT22;11858;51.056;3.712;2023-03-14T16:10:32;10.10;99.90
23371;DHT22;11858;51.056;3.712;2023-03-14T16:12:58;10.00;99.90
23371;DHT22;11858;51.056;3.712;2023-03-14T16:15:24;9.80;99.90
23371;DHT22;11858;51.056;3.712;2023-03-14T16:17:55;9.50;99.90
23371;DHT22;11858;51.056;3.712;2023-03-14T16:20:22;9.50;99.90
23371;DHT22;11858;51.056;3.712;2023-03-14T16:22:47;9.20;99.90
23371;DHT22;11858;51.056;3.712;2023-03-14T16:25:14;9.10;99.90
23371;DHT22;11858;51.056;3.712;2023-03-14T16:27:40;8.80;99.90
23371;DHT22;11858;51.056;3.712;2023-03-14T16:30:08;8.80;99.90
23371;DHT22;11858;51.056;3.712;2023-03-14T16:32:34;8.70;99.90
23371;DHT22;11858;51.056;3.712;2023-03-14T16:35:00;8.70;99.90
23371;DHT22;11858;51.056;3.712;2023-03-14T16:37:26;8.60;99.90
23371;DHT22;11858;51.056;3.712;2023-03-14T16:39:52;8.40;99.90